Time;durP1;ratioP1;P1;durP2;ratioP2;P2;SDS_P1;SDS_P2;PMS_P1;PMS_P2;Temp;Humidity;BMP_temperature;BMP_pressure;BME280_temperature;BME280_humidity;BME280_pressure;Samples;Min_cycle;Max_cycle;Signal;HPM_P1;HPM_P2
2021/12/28 00:00:25;;;;;;;;;;;;;;;;;;;;;
2021/12/28 00:03:21;;;;;;;;;;;;;;;;;;;;;
2021/12/28 00:12:44;;;;;;;109.45;18.65;;;;;;;2.49;100.00;91787.81;4929869;29;20055;-92
2021/12/28 00:23:13;;;;;;;;;;;;;;;;;;;;;
2021/12/28 00:26:27;;;;;;;;;;;;;;;;;;;;;
2021/12/28 00:29:22;;;;;;;;;;;;;;;;;;;;;
2021/12/28 00:36:03;;;;;;;179.55;22.63;;;;;;;2.21;100.00;91752.84;4934038;29;20051;-92
2021/12/28 00:46:53;;;;;;;93.93;22.42;;;;;;;2.11;100.00;91720.00;4887107;29;20052;-92
2021/12/28 00:49:56;;;;;;;44.90;20.92;;;;;;;2.45;100.00;91786.75;4908183;29;20048;-93
2021/12/28 00:56:53;;;;;;;;;;;;;;;;;;;;;
2021/12/28 01:03:23;;;;;;;80.20;19.35;;;;;;;2.46;100.00;91726.31;4914554;29;20135;-93
2021/12/28 01:06:08;;;;;;;55.75;19.98;;;;;;;2.62;100.00;91768.47;4905525;29;20467;-92
2021/12/28 01:09:19;;;;;;;170.80;19.75;;;;;;;2.26;100.00;91730.38;4873489;29;20135;-93
2021/12/28 01:15:29;;;;;;;;;;;;;;;;;;;;;
2021/12/28 01:19:11;;;;;;;;;;;;;;;;;;;;;
2021/12/28 01:51:00;;;;;;;333.92;23.42;;;;;;;2.25;100.00;91746.91;4920129;29;20149;-93
2021/12/28 01:54:35;;;;;;;195.02;23.38;;;;;;;2.25;100.00;91752.09;4899847;29;20055;-93
2021/12/28 01:58:35;;;;;;;;;;;;;;;;;;;;;
2021/12/28 02:06:32;;;;;;;;;;;;;;;;;;;;;
2021/12/28 02:22:04;;;;;;;32.08;14.48;;;;;;;2.34;100.00;91703.28;4753947;30;20097;-92
2021/12/28 02:33:52;;;;;;;28.08;13.30;;;;;;;2.31;100.00;91721.88;4682258;30;20076;-93
2021/12/28 03:24:45;;;;;;;27.27;11.90;;;;;;;2.37;100.00;91756.25;4751633;30;20079;-93
2021/12/28 03:28:45;;;;;;;37.95;14.10;;;;;;;1.99;100.00;91693.63;4751001;29;20454;-93
2021/12/28 03:36:49;;;;;;;;;;;;;;;;;;;;;
2021/12/28 03:49:12;;;;;;;;;;;;;;;;;;;;;
2021/12/28 04:08:41;;;;;;;188.40;19.90;;;;;;;1.63;100.00;91629.75;4686391;30;20055;-92
2021/12/28 04:12:12;;;;;;;233.90;20.02;;;;;;;1.71;100.00;91635.44;4665158;30;20047;-92
2021/12/28 04:42:31;;;;;;;;;;;;;;;;;;;;;
2021/12/28 04:46:10;;;;;;;58.28;18.33;;;;;;;2.00;100.00;91710.66;4777910;29;20081;-92
2021/12/28 04:49:10;;;;;;;;;;;;;;;;;;;;;
2021/12/28 04:56:00;;;;;;;250.27;19.13;;;;;;;1.78;100.00;91680.66;4843510;29;19920;-93
2021/12/28 05:02:52;;;;;;;;;;;;;;;;;;;;;
2021/12/28 05:05:57;;;;;;;;;;;;;;;;;;;;;
2021/12/28 05:09:22;;;;;;;;;;;;;;;;;;;;;
2021/12/28 05:12:49;;;;;;;53.78;18.88;;;;;;;1.84;100.00;91664.13;4860413;29;20045;-92
2021/12/28 05:20:03;;;;;;;58.40;18.83;;;;;;;1.80;100.00;91663.09;4843800;29;20423;-93
2021/12/28 05:23:18;;;;;;;48.38;18.13;;;;;;;2.10;100.00;91702.19;4830385;29;20046;-93
2021/12/28 05:26:57;;;;;;;;;;;;;;;;;;;;;
2021/12/28 05:30:07;;;;;;;;;;;;;;;;;;;;;
2021/12/28 05:33:26;;;;;;;;;;;;;;;;;;;;;
2021/12/28 05:36:35;;;;;;;;;;;;;;;;;;;;;
2021/12/28 05:44:06;;;;;;;;;;;;;;;;;;;;;
2021/12/28 05:50:52;;;;;;;;;;;;;;;;;;;;;
2021/12/28 05:54:17;;;;;;;;;;;;;;;;;;;;;
2021/12/28 05:57:21;;;;;;;;;;;;;;;;;;;;;
2021/12/28 06:00:50;;;;;;;47.72;14.65;;;;;;;1.96;100.00;91713.00;4886653;29;20045;-93
2021/12/28 06:04:14;;;;;;;;;;;;;;;;;;;;;
2021/12/28 06:15:31;;;;;;;48.35;18.33;;;;;;;2.24;100.00;91778.94;4896156;29;20231;-92
2021/12/28 06:22:44;;;;;;;46.80;16.95;;;;;;;2.28;100.00;91766.31;4824851;29;20065;-93
2021/12/28 06:29:39;;;;;;;46.50;17.20;;;;;;;1.88;100.00;91716.81;4811839;29;20047;-88
2021/12/28 06:32:42;;;;;;;;;;;;;;;;;;;;;
2021/12/28 06:35:34;;;;;;;49.08;16.77;;;;;;;2.05;100.00;91733.94;4874790;29;20126;-88
2021/12/28 06:38:46;;;;;;;53.15;17.88;;;;;;;1.92;100.00;91717.09;4864086;29;20049;-89
2021/12/28 06:42:05;;;;;;;;;;;;;;;;;;;;;
2021/12/28 06:44:46;;;;;;;47.80;17.08;;;;;;;1.86;100.00;91676.78;4935485;29;20389;-89
2021/12/28 06:47:52;;;;;;;50.80;19.38;;;;;;;2.28;100.00;91748.22;4933079;29;20509;-90
2021/12/28 06:50:57;;;;;;;47.53;17.15;;;;;;;2.33;100.00;91747.47;4935370;29;20758;-93
2021/12/28 06:53:41;;;;;;;42.22;15.50;;;;;;;2.13;100.00;91717.94;4904130;29;20046;-87
2021/12/28 06:56:36;;;;;;;45.83;16.60;;;;;;;1.85;100.00;91711.38;4909662;29;20029;-88
2021/12/28 06:59:17;;;;;;;84.07;19.17;;;;;;;1.81;100.00;91716.25;4885654;29;20047;-87
2021/12/28 07:02:12;;;;;;;119.95;15.38;;;;;;;1.72;100.00;91696.34;4901760;29;20270;-88
2021/12/28 07:04:52;;;;;;;53.42;16.63;;;;;;;1.95;100.00;91741.63;4931035;29;20054;-88
2021/12/28 07:07:56;;;;;;;58.08;19.20;;;;;;;1.76;100.00;91718.81;4919136;29;20050;-88
2021/12/28 07:10:32;;;;;;;55.72;19.35;;;;;;;2.04;100.00;91778.84;4909022;29;20099;-88
2021/12/28 07:16:02;;;;;;;41.25;17.30;;;;;;;2.06;100.00;91764.66;4917143;29;20505;-89
2021/12/28 07:18:50;;;;;;;41.10;15.73;;;;;;;2.06;100.00;91756.13;4909033;29;20439;-89
2021/12/28 07:21:31;;;;;;;45.40;16.70;;;;;;;1.87;100.00;91727.41;4899136;29;20095;-87
2021/12/28 07:24:15;;;;;;;41.72;14.98;;;;;;;1.87;100.00;91714.50;4899933;29;20067;-87
2021/12/28 07:27:16;;;;;;;42.00;15.30;;;;;;;2.00;100.00;91720.97;4911387;29;20107;-87
2021/12/28 07:29:49;;;;;;;35.22;14.45;;;;;;;1.99;100.00;91715.06;4926618;29;20032;-86
2021/12/28 07:32:32;;;;;;;36.50;15.25;;;;;;;2.25;100.00;91752.09;4927387;29;20048;-86
2021/12/28 07:35:06;;;;;;;36.70;13.20;;;;;;;2.27;100.00;91734.53;4929782;29;20130;-85
2021/12/28 07:37:41;;;;;;;31.52;12.10;;;;;;;2.55;100.00;91763.53;4919063;29;20079;-87
2021/12/28 07:40:10;;;;;;;35.45;14.50;;;;;;;2.25;100.00;91707.38;4900155;29;20032;-85
2021/12/28 07:42:40;;;;;;;44.00;16.13;;;;;;;2.46;100.00;91741.81;4901551;29;20024;-86
2021/12/28 07:45:12;;;;;;;44.50;16.65;;;;;;;2.30;100.00;91712.59;4905822;29;20084;-86
2021/12/28 07:47:56;;;;;;;46.95;16.13;;;;;;;2.35;100.00;91735.84;4901281;29;20088;-87
2021/12/28 07:50:34;;;;;;;57.67;15.20;;;;;;;2.29;100.00;91727.28;4899374;29;20044;-86
2021/12/28 07:53:22;;;;;;;68.82;16.08;;;;;;;2.09;100.00;91716.88;4913456;29;20044;-89
2021/12/28 07:56:06;;;;;;;49.65;18.30;;;;;;;2.22;100.00;91737.09;4926635;29;20039;-86
2021/12/28 07:58:34;;;;;;;80.28;29.85;;;;;;;2.22;100.00;91716.41;4916752;29;20068;-87
2021/12/28 08:01:17;;;;;;;62.80;21.55;;;;;;;2.24;100.00;91723.94;4907844;29;20024;-88
2021/12/28 08:04:01;;;;;;;41.38;16.55;;;;;;;2.40;100.00;91746.19;4924290;29;20044;-87
2021/12/28 08:06:44;;;;;;;40.20;16.63;;;;;;;2.24;100.00;91735.03;4906623;29;20427;-86
2021/12/28 08:09:15;;;;;;;39.03;16.38;;;;;;;2.53;100.00;91770.78;4904867;29;20032;-86
2021/12/28 08:11:55;;;;;;;52.53;21.35;;;;;;;2.63;100.00;91773.38;4912234;29;20505;-86
2021/12/28 08:14:34;;;;;;;49.92;17.80;;;;;;;2.46;100.00;91747.00;4905241;29;20148;-86
2021/12/28 08:17:04;;;;;;;38.78;15.45;;;;;;;2.60;100.00;91753.22;4887507;29;20040;-86
2021/12/28 08:19:37;;;;;;;33.97;15.57;;;;;;;3.10;100.00;91811.22;4913078;29;20111;-86
2021/12/28 08:22:05;;;;;;;35.33;14.48;;;;;;;3.23;100.00;91794.44;4936838;29;20377;-87
2021/12/28 08:24:47;;;;;;;23.38;9.57;;;;;;;3.01;97.78;91730.00;4931938;29;20040;-86
2021/12/28 08:27:18;;;;;;;29.45;13.45;;;;;;;3.03;97.79;91740.88;4902635;29;20075;-85
2021/12/28 08:29:49;;;;;;;34.63;13.05;;;;;;;2.97;98.59;91739.31;4902346;29;20032;-86
2021/12/28 08:32:26;;;;;;;36.88;13.68;;;;;;;3.18;98.42;91754.88;4902161;29;20037;-87
2021/12/28 08:34:57;;;;;;;40.28;14.27;;;;;;;3.13;97.15;91735.72;4901785;29;20043;-87
2021/12/28 08:37:26;;;;;;;29.83;12.82;;;;;;;3.15;96.89;91722.50;4902001;29;20063;-86
2021/12/28 08:40:06;;;;;;;33.63;13.65;;;;;;;3.29;96.56;91712.44;4929405;29;20707;-86
2021/12/28 08:42:52;;;;;;;32.45;13.23;;;;;;;3.78;95.45;91755.06;4903100;29;20096;-86
2021/12/28 08:45:34;;;;;;;22.80;10.15;;;;;;;3.70;95.05;91705.38;4909137;29;20040;-86
2021/12/28 08:48:15;;;;;;;;;;;;;;;;;;;;;
2021/12/28 08:50:55;;;;;;;23.15;10.07;;;;;;;4.34;93.87;91753.09;4918667;29;20060;-86
2021/12/28 08:53:31;;;;;;;23.98;11.27;;;;;;;4.04;91.38;91714.34;4918663;29;20040;-87
2021/12/28 08:55:59;;;;;;;22.50;10.15;;;;;;;3.97;90.99;91718.00;4923653;29;20031;-86
2021/12/28 08:58:37;;;;;;;19.33;8.23;;;;;;;4.45;90.99;91747.88;4938246;29;20079;-86
2021/12/28 09:04:10;;;;;;;42.30;16.60;;;;;;;4.13;92.72;91751.63;4920277;29;20481;-86
2021/12/28 09:06:59;;;;;;;38.67;16.25;;;;;;;4.22;92.99;91749.25;4904197;29;20044;-87
2021/12/28 09:09:36;;;;;;;34.40;14.00;;;;;;;4.71;91.75;91772.63;4919616;29;20067;-86
2021/12/28 09:12:23;;;;;;;;;;;;;;;;;;;;;
2021/12/28 09:15:01;;;;;;;;;;;;;;;;;;;;;
2021/12/28 09:17:46;;;;;;;20.63;9.95;;;;;;;5.06;88.35;91786.44;4941142;28;20035;-93
2021/12/28 09:20:28;;;;;;;;;;;;;;;;;;;;;
2021/12/28 09:23:11;;;;;;;14.55;7.00;;;;;;;4.77;88.40;91745.66;4954393;28;20032;-90
2021/12/28 09:26:04;;;;;;;13.25;6.35;;;;;;;4.78;88.47;91764.56;4929711;29;20067;-87
2021/12/28 09:29:18;;;;;;;;;;;;;;;;;;;;;
2021/12/28 09:31:59;;;;;;;20.20;8.85;;;;;;;4.72;88.24;91757.84;4901441;29;20040;-86
2021/12/28 09:34:48;;;;;;;19.67;8.15;;;;;;;5.06;87.78;91799.41;4920370;29;20516;-87
2021/12/28 09:37:22;;;;;;;16.13;6.70;;;;;;;4.97;87.18;91765.47;4902487;29;20052;-86
2021/12/28 09:39:58;;;;;;;13.82;5.53;;;;;;;5.07;86.16;91764.66;4901155;29;20046;-87
2021/12/28 09:42:29;;;;;;;12.60;5.72;;;;;;;5.13;85.92;91755.00;4909361;29;20108;-86
2021/12/28 09:45:08;;;;;;;49.33;21.20;;;;;;;5.18;87.63;91760.94;4901307;29;20079;-87
2021/12/28 09:47:47;;;;;;;57.08;24.65;;;;;;;4.95;90.14;91752.03;4902607;29;20040;-86
2021/12/28 09:50:25;;;;;;;166.48;25.33;;;;;;;4.80;91.37;91763.25;4914372;29;20072;-86
2021/12/28 09:53:00;;;;;;;193.63;23.08;;;;;;;4.56;92.61;91799.41;4916088;29;20084;-86
2021/12/28 09:55:28;;;;;;;285.52;23.02;;;;;;;4.48;93.70;91783.63;4914864;29;20496;-86
2021/12/28 09:58:02;;;;;;;60.22;25.80;;;;;;;4.43;94.15;91755.91;4903491;29;20040;-86
2021/12/28 10:00:36;;;;;;;72.68;29.08;;;;;;;4.83;94.24;91777.50;4907813;29;20034;-86
2021/12/28 10:03:36;;;;;;;87.90;26.83;;;;;;;4.92;92.42;91757.72;4929851;29;20086;-87
2021/12/28 10:06:32;;;;;;;50.40;21.98;;;;;;;5.53;92.08;91808.44;4935384;29;20039;-87
2021/12/28 10:09:44;;;;;;;16.83;7.75;;;;;;;5.63;85.19;91803.19;4916562;29;20068;-87
2021/12/28 10:13:03;;;;;;;23.98;10.27;;;;;;;5.38;85.14;91747.06;4907674;29;20032;-87
2021/12/28 10:15:44;;;;;;;42.80;18.38;;;;;;;5.34;86.63;91755.66;4913984;29;20046;-86
2021/12/28 10:18:23;;;;;;;28.92;11.50;;;;;;;5.48;83.88;91743.59;4921557;29;20043;-86
2021/12/28 10:21:07;;;;;;;;;;;;;;;;;;;;;
2021/12/28 10:24:17;;;;;;;44.15;19.13;;;;;;;5.21;88.61;91765.59;4900970;29;20047;-87
2021/12/28 10:27:33;;;;;;;;;;;;;;;;;;;;;
2021/12/28 10:30:24;;;;;;;45.85;19.40;;;;;;;5.37;88.35;91757.69;4934549;29;20043;-89
2021/12/28 10:32:59;;;;;;;30.40;14.60;;;;;;;5.34;86.76;91753.06;4902311;29;20095;-91
2021/12/28 10:35:31;;;;;;;25.42;11.80;;;;;;;5.28;84.29;91748.94;4914388;29;20040;-90
2021/12/28 10:38:34;;;;;;;44.38;19.02;;;;;;;5.44;87.76;91750.38;4909739;29;20048;-90
2021/12/28 10:41:13;;;;;;;49.22;21.20;;;;;;;5.68;87.10;91788.63;4917871;29;20028;-91
2021/12/28 10:47:01;;;;;;;40.75;16.55;;;;;;;5.49;84.73;91728.78;4912446;29;20064;-90
2021/12/28 10:50:12;;;;;;;42.05;18.60;;;;;;;5.53;87.36;91774.69;4887333;29;20091;-88
2021/12/28 10:53:35;;;;;;;;;;;;;;;;;;;;;
2021/12/28 10:56:19;;;;;;;52.85;21.83;;;;;;;4.90;91.29;91743.50;4900362;29;20047;-87
2021/12/28 11:02:55;;;;;;;;;;;;;;;;;;;;;
2021/12/28 11:05:59;;;;;;;14.90;7.10;;;;;;;6.07;83.28;91741.78;4891503;29;20051;-87
2021/12/28 11:08:44;;;;;;;14.77;7.32;;;;;;;6.56;82.07;91756.31;4901718;29;20522;-87
2021/12/28 11:11:25;;;;;;;16.80;7.85;;;;;;;7.26;79.03;91747.81;4882736;29;20055;-87
2021/12/28 11:14:09;;;;;;;32.75;13.82;;;;;;;6.97;78.42;91708.16;4900954;29;20039;-87
2021/12/28 11:16:43;;;;;;;25.48;11.05;;;;;;;7.02;77.02;91693.25;4866209;29;20096;-87
2021/12/28 11:19:25;;;;;;;35.20;15.77;;;;;;;7.42;77.50;91704.09;4884563;29;20044;-90
2021/12/28 11:22:37;;;;;;;;;;;;;;;;;;;;;
2021/12/28 11:25:51;;;;;;;33.80;15.35;;;;;;;7.53;77.72;91709.91;4898193;29;20072;-90
2021/12/28 11:32:45;;;;;;;;;;;;;;;;;;;;;
2021/12/28 11:35:14;;;;;;;29.35;13.95;;;;;;;7.73;75.98;91706.19;4880738;29;20053;-90
2021/12/28 11:38:34;;;;;;;;;;;;;;;;;;;;;
2021/12/28 11:41:30;;;;;;;;;;;;;;;;;;;;;
2021/12/28 11:44:36;;;;;;;34.60;17.10;;;;;;;6.90;80.34;91655.72;4908749;29;20064;-89
2021/12/28 11:47:23;;;;;;;30.67;13.75;;;;;;;7.14;79.14;91681.63;4900396;29;20084;-90
2021/12/28 11:50:11;;;;;;;28.95;12.65;;;;;;;7.08;78.05;91662.72;4885249;29;20483;-91
2021/12/28 11:52:51;;;;;;;19.23;8.70;;;;;;;7.47;75.72;91662.34;4900495;29;20060;-91
2021/12/28 11:55:50;;;;;;;18.88;8.82;;;;;;;7.62;74.36;91639.69;4900779;29;20047;-91
2021/12/28 11:59:16;;;;;;;;;;;;;;;;;;;;;
2021/12/28 12:02:57;;;;;;;19.08;8.70;;;;;;;8.57;70.54;91670.50;4898861;29;20045;-91
2021/12/28 12:06:06;;;;;;;;;;;;;;;;;;;;;
2021/12/28 12:08:45;;;;;;;;;;;;;;;;;;;;;
2021/12/28 12:11:51;;;;;;;9.63;4.90;;;;;;;8.48;65.83;91646.94;4920962;29;20047;-91
2021/12/28 12:18:36;;;;;;;;;;;;;;;;;;;;;
2021/12/28 12:24:39;;;;;;;37.85;19.20;;;;;;;7.44;77.16;91631.66;4905387;29;20048;-91
2021/12/28 12:27:57;;;;;;;41.65;18.63;;;;;;;7.93;76.80;91661.53;4892946;29;20051;-90
2021/12/28 12:31:08;;;;;;;27.00;14.43;;;;;;;8.00;74.89;91673.41;4890154;29;20129;-91
2021/12/28 12:33:57;;;;;;;12.00;5.97;;;;;;;7.76;68.50;91613.66;4882694;29;20098;-91
2021/12/28 12:36:54;;;;;;;10.10;5.05;;;;;;;8.13;66.36;91676.00;4885280;29;20061;-91
2021/12/28 12:39:36;;;;;;;;;;;;;;;8.29;66.27;91681.69;4900483;29;20133;-91
2021/12/28 12:46:43;;;;;;;9.25;4.78;;;;;;;8.07;70.57;91665.97;4904386;29;20098;-88
2021/12/28 12:52:44;;;;;;;;;;;;;;;;;;;;;
2021/12/28 12:59:04;;;;;;;13.40;6.90;;;;;;;8.02;69.64;91604.28;4926260;28;20032;-95
2021/12/28 13:01:54;;;;;;;14.35;6.72;;;;;;;8.92;69.01;91648.84;4928693;28;20067;-87
2021/12/28 13:05:00;;;;;;;;;;;;;;;;;;;;;
2021/12/28 13:07:46;;;;;;;;;;;;;;;;;;;;;
2021/12/28 13:13:54;;;;;;;8.98;4.03;;;;;;;10.47;59.79;91599.44;4919726;29;20052;-88
2021/12/28 13:16:44;;;;;;;8.98;4.82;;;;;;;10.37;60.06;91603.09;4911003;29;20104;-88
2021/12/28 13:23:03;;;;;;;10.63;4.43;;;;;;;9.82;60.10;91606.19;4917985;29;20070;-88
2021/12/28 13:33:00;;;;;;;16.27;8.32;;;;;;;7.90;72.45;91630.84;4912603;29;20135;-88
2021/12/28 13:36:28;;;;;;;;;;;;;;;;;;;;;
2021/12/28 13:39:12;;;;;;;17.70;8.15;;;;;;;7.25;74.84;91620.53;4905785;29;20504;-89
2021/12/28 13:42:20;;;;;;;13.63;7.05;;;;;;;6.87;75.99;91641.44;4913835;29;20549;-88
2021/12/28 13:45:54;;;;;;;;;;;;;;;;;;;;;
2021/12/28 13:49:07;;;;;;;12.15;5.88;;;;;;;6.24;76.96;91601.00;4916852;29;20059;-88
2021/12/28 13:52:29;;;;;;;14.52;7.43;;;;;;;6.11;76.85;91594.66;4924250;29;20419;-89
2021/12/28 13:55:27;;;;;;;12.98;6.55;;;;;;;6.17;77.08;91593.53;4916463;29;20119;-88
2021/12/28 14:02:13;;;;;;;10.23;5.13;;;;;;;6.66;75.37;91646.16;4937047;23;20182;-76
2021/12/28 14:04:39;;;;;;;10.25;5.47;;;;;;;6.70;75.05;91647.16;4884342;29;20107;-76
2021/12/28 14:07:04;;;;;;;9.07;4.82;;;;;;;6.65;76.17;91639.44;4916694;29;20067;-76
2021/12/28 14:09:30;;;;;;;9.68;5.50;;;;;;;6.42;77.06;91634.00;4917010;29;20048;-74
2021/12/28 14:11:59;;;;;;;13.98;6.30;;;;;;;6.31;77.73;91619.59;4886014;29;20064;-76
2021/12/28 14:14:26;;;;;;;11.93;6.30;;;;;;;6.15;78.33;91626.84;4881184;29;20459;-75
2021/12/28 14:17:13;;;;;;;11.80;5.90;;;;;;;6.11;78.04;91617.28;4898536;29;20483;-75
2021/12/28 14:19:41;;;;;;;11.38;6.00;;;;;;;6.13;78.79;91617.78;4897891;29;20096;-75
2021/12/28 14:22:18;;;;;;;11.50;6.43;;;;;;;6.17;79.07;91624.72;4897267;29;20505;-74
2021/12/28 14:24:52;;;;;;;11.38;6.28;;;;;;;6.17;78.75;91637.72;4880702;29;20403;-74
2021/12/28 14:27:29;;;;;;;11.25;6.15;;;;;;;6.16;78.60;91632.78;4880283;29;20112;-75
2021/12/28 14:30:18;;;;;;;11.30;6.00;;;;;;;6.12;79.08;91637.00;4897167;29;20491;-77
2021/12/28 14:32:47;;;;;;;9.02;5.65;;;;;;;6.11;78.76;91640.66;4896863;29;20040;-75
2021/12/28 14:35:16;;;;;;;10.18;4.93;;;;;;;6.02;79.18;91643.88;4880757;29;20064;-77
2021/12/28 14:37:43;;;;;;;11.63;5.57;;;;;;;5.97;78.86;91636.16;4879835;29;20406;-75
2021/12/28 14:40:18;;;;;;;9.07;4.82;;;;;;;5.75;78.71;91633.25;4870888;29;20047;-76
2021/12/28 14:42:47;;;;;;;8.93;4.63;;;;;;;5.70;78.96;91647.06;4896647;29;20092;-75
2021/12/28 14:45:17;;;;;;;9.38;4.95;;;;;;;5.66;79.18;91640.88;4896869;29;20087;-78
2021/12/28 14:47:45;;;;;;;12.25;5.25;;;;;;;5.69;79.40;91632.53;4896707;29;20502;-75
2021/12/28 14:50:18;;;;;;;10.05;5.68;;;;;;;5.48;80.60;91639.00;4885952;29;20051;-76
2021/12/28 14:52:53;;;;;;;10.38;5.60;;;;;;;5.41;80.19;91626.34;4867063;29;20044;-75
2021/12/28 14:55:28;;;;;;;10.18;5.70;;;;;;;5.37;80.28;91607.16;4879797;29;20044;-76
2021/12/28 14:57:58;;;;;;;11.63;6.03;;;;;;;5.30;81.03;91623.06;4880501;29;20040;-75
2021/12/28 15:00:30;;;;;;;13.13;5.65;;;;;;;5.26;81.27;91621.28;4880073;29;20028;-75
2021/12/28 15:03:03;;;;;;;11.93;5.80;;;;;;;5.26;81.09;91616.09;4889958;29;20051;-75
2021/12/28 15:05:32;;;;;;;10.30;5.70;;;;;;;5.21;81.47;91609.91;4859684;29;20056;-74
2021/12/28 15:08:04;;;;;;;9.85;5.80;;;;;;;5.24;81.65;91624.16;4897022;29;20037;-74
2021/12/28 15:10:32;;;;;;;10.68;5.78;;;;;;;5.19;82.01;91611.22;4894069;29;20035;-76
2021/12/28 15:13:08;;;;;;;11.15;6.22;;;;;;;5.19;82.19;91619.78;4897151;29;20430;-76
2021/12/28 15:15:36;;;;;;;10.10;5.68;;;;;;;5.16;82.54;91617.75;4896816;29;20124;-74
2021/12/28 15:18:03;;;;;;;11.60;6.00;;;;;;;5.17;82.23;91629.66;4896520;29;20029;-74
2021/12/28 15:20:30;;;;;;;11.38;6.55;;;;;;;5.14;82.57;91645.78;4879881;29;20127;-74
2021/12/28 15:22:56;;;;;;;9.60;5.43;;;;;;;5.14;82.71;91648.38;4880123;29;20029;-74
2021/12/28 15:25:23;;;;;;;10.23;5.57;;;;;;;5.08;82.64;91639.06;4896777;29;20041;-75
2021/12/28 15:27:50;;;;;;;11.23;6.13;;;;;;;5.05;82.64;91644.06;4864564;29;20028;-75
2021/12/28 15:30:19;;;;;;;9.70;5.55;;;;;;;5.01;83.09;91636.78;4864568;29;20052;-74
2021/12/28 15:32:48;;;;;;;9.45;5.28;;;;;;;5.09;83.11;91632.84;4896851;29;20467;-76
2021/12/28 15:35:23;;;;;;;11.13;6.45;;;;;;;5.01;83.12;91638.63;4880395;29;20044;-74
2021/12/28 15:37:50;;;;;;;13.50;6.72;;;;;;;4.86;84.00;91639.50;4896755;29;20134;-74
2021/12/28 15:40:17;;;;;;;11.80;6.80;;;;;;;4.76;84.55;91639.59;4864671;29;20032;-74
2021/12/28 15:42:46;;;;;;;12.55;6.97;;;;;;;4.68;84.90;91638.34;4880101;29;20033;-74
2021/12/28 15:45:13;;;;;;;10.73;5.60;;;;;;;4.64;84.97;91634.75;4864075;29;20121;-75
2021/12/28 15:47:41;;;;;;;12.00;5.68;;;;;;;4.56;84.84;91632.72;4879528;29;20127;-75
2021/12/28 15:50:10;;;;;;;11.88;6.00;;;;;;;4.59;84.48;91639.97;4864088;29;20130;-75
2021/12/28 15:52:37;;;;;;;9.90;5.50;;;;;;;4.55;84.55;91639.75;4896136;29;20028;-74
2021/12/28 15:55:05;;;;;;;10.95;5.40;;;;;;;4.53;84.97;91634.03;4895575;29;20477;-75
2021/12/28 15:57:32;;;;;;;9.02;4.95;;;;;;;4.46;84.94;91656.91;4865063;29;20468;-75
2021/12/28 15:59:58;;;;;;;10.85;5.70;;;;;;;4.43;84.94;91661.84;4879377;29;20045;-75
2021/12/28 16:02:25;;;;;;;10.10;5.88;;;;;;;4.43;84.91;91651.47;4896374;29;20092;-76
2021/12/28 16:04:51;;;;;;;11.57;6.05;;;;;;;4.41;85.44;91663.91;4861142;29;20112;-76
2021/12/28 16:07:20;;;;;;;11.60;5.88;;;;;;;4.37;85.13;91658.50;4862334;29;20041;-74
2021/12/28 16:09:46;;;;;;;9.68;5.60;;;;;;;4.28;85.43;91647.94;4861487;29;20034;-74
2021/12/28 16:12:14;;;;;;;11.85;6.95;;;;;;;4.29;86.03;91657.25;4861283;29;20135;-74
2021/12/28 16:14:43;;;;;;;11.15;5.90;;;;;;;4.26;86.19;91660.38;4880394;29;20033;-74
2021/12/28 16:17:10;;;;;;;11.23;5.90;;;;;;;4.24;86.24;91659.88;4881543;29;20099;-75
2021/12/28 16:19:37;;;;;;;9.98;6.00;;;;;;;4.18;86.57;91660.94;4870780;29;20033;-76
2021/12/28 16:22:06;;;;;;;10.32;5.90;;;;;;;4.11;86.45;91647.50;4880425;29;20037;-74
2021/12/28 16:24:32;;;;;;;11.02;6.88;;;;;;;4.06;86.62;91657.88;4863965;29;20033;-75
2021/12/28 16:26:57;;;;;;;9.15;5.07;;;;;;;4.04;86.02;91662.56;4863973;29;20037;-75
2021/12/28 16:29:23;;;;;;;12.35;4.88;;;;;;;3.96;86.13;91663.88;4863598;29;20065;-75
2021/12/28 16:31:49;;;;;;;8.10;4.43;;;;;;;3.93;86.52;91665.16;4880127;29;20041;-75
2021/12/28 16:34:15;;;;;;;10.15;5.38;;;;;;;3.83;86.62;91660.06;4880052;29;20119;-74
2021/12/28 16:36:42;;;;;;;9.02;5.18;;;;;;;3.82;86.86;91650.72;4865898;29;20052;-74
2021/12/28 16:39:11;;;;;;;9.75;5.65;;;;;;;3.77;86.88;91655.91;4882178;29;20028;-74
2021/12/28 16:41:38;;;;;;;9.35;5.18;;;;;;;3.73;86.54;91650.47;4882033;29;20115;-74
2021/12/28 16:44:04;;;;;;;9.45;5.45;;;;;;;3.67;86.72;91661.13;4899004;29;20444;-75
2021/12/28 16:46:31;;;;;;;9.30;4.90;;;;;;;3.61;86.90;91668.13;4881832;29;20044;-74
2021/12/28 16:48:58;;;;;;;10.25;5.97;;;;;;;3.52;86.94;91659.34;4898651;29;20052;-74
2021/12/28 16:51:24;;;;;;;12.23;5.75;;;;;;;3.48;87.46;91666.88;4881889;29;20036;-74
2021/12/28 16:53:50;;;;;;;9.15;5.13;;;;;;;3.41;87.36;91663.78;4882087;29;20048;-74
2021/12/28 16:56:16;;;;;;;8.18;5.20;;;;;;;3.32;87.15;91660.19;4882158;29;20562;-74
2021/12/28 16:58:42;;;;;;;13.57;5.95;;;;;;;3.23;87.07;91651.41;4898271;29;20055;-74
2021/12/28 17:01:08;;;;;;;12.02;6.00;;;;;;;3.19;86.84;91651.13;4898231;29;20192;-74
2021/12/28 17:03:34;;;;;;;9.90;5.50;;;;;;;3.13;87.07;91652.19;4898527;29;20085;-74
2021/12/28 17:05:59;;;;;;;12.48;5.97;;;;;;;3.07;87.33;91656.59;4881412;29;20048;-75
2021/12/28 17:08:25;;;;;;;13.45;7.32;;;;;;;3.01;87.68;91675.72;4898134;29;20384;-74
2021/12/28 17:10:54;;;;;;;15.23;7.30;;;;;;;2.95;88.29;91676.75;4898121;29;20043;-75
2021/12/28 17:13:24;;;;;;;14.13;7.50;;;;;;;2.92;88.62;91685.03;4898147;29;20135;-75
2021/12/28 17:15:51;;;;;;;14.68;8.23;;;;;;;2.85;88.85;91692.25;4898073;29;20503;-74
2021/12/28 17:18:17;;;;;;;15.95;8.57;;;;;;;2.82;89.22;91674.69;4898152;29;20020;-74
2021/12/28 17:20:44;;;;;;;15.75;8.50;;;;;;;2.74;89.44;91675.19;4881047;29;20040;-74
2021/12/28 17:23:09;;;;;;;14.50;8.35;;;;;;;2.74;89.91;91685.53;4897932;29;20475;-74
2021/12/28 17:25:36;;;;;;;19.40;9.32;;;;;;;2.66;90.33;91687.59;4897673;29;20131;-74
2021/12/28 17:28:02;;;;;;;21.35;11.45;;;;;;;2.70;90.71;91705.94;4897850;29;20044;-74
2021/12/28 17:30:28;;;;;;;20.00;11.20;;;;;;;2.69;90.56;91691.47;4897705;29;20033;-75
2021/12/28 17:32:53;;;;;;;20.92;12.25;;;;;;;2.66;90.86;91685.00;4897805;29;20543;-74
2021/12/28 17:35:21;;;;;;;22.67;11.68;;;;;;;2.67;91.83;91690.94;4881122;29;20064;-74
2021/12/28 17:37:47;;;;;;;24.20;11.85;;;;;;;2.74;92.11;91691.47;4881080;29;20100;-74
2021/12/28 17:40:15;;;;;;;20.05;10.68;;;;;;;2.81;93.31;91686.06;4880934;29;20040;-74
2021/12/28 17:42:41;;;;;;;17.40;9.63;;;;;;;2.84;92.77;91670.03;4897832;29;20052;-74
2021/12/28 17:45:11;;;;;;;20.40;10.13;;;;;;;2.86;92.08;91665.38;4865330;29;20032;-74
2021/12/28 17:47:38;;;;;;;16.35;9.25;;;;;;;2.97;92.02;91648.81;4897714;29;20550;-73
2021/12/28 17:50:05;;;;;;;38.35;18.20;;;;;;;2.91;92.10;91649.88;4897284;29;20028;-74
2021/12/28 17:52:31;;;;;;;26.08;11.95;;;;;;;2.82;91.99;91659.94;4870616;29;20059;-75
2021/12/28 17:54:57;;;;;;;19.25;11.13;;;;;;;2.78;91.96;91660.72;4865679;29;20131;-75
2021/12/28 17:57:23;;;;;;;23.13;10.88;;;;;;;2.72;92.38;91662.53;4853681;29;20047;-75
2021/12/28 17:59:48;;;;;;;17.92;10.32;;;;;;;2.69;92.64;91663.03;4862018;29;20060;-75
2021/12/28 18:02:14;;;;;;;18.75;10.25;;;;;;;2.68;92.52;91672.63;4861602;29;20076;-75
2021/12/28 18:04:40;;;;;;;16.70;8.98;;;;;;;2.74;92.19;91633.84;4861710;29;20041;-75
2021/12/28 18:07:07;;;;;;;19.90;9.57;;;;;;;2.68;92.76;91657.09;4878336;29;20041;-75
2021/12/28 18:09:34;;;;;;;15.23;8.70;;;;;;;2.65;93.49;91646.50;4861753;29;20461;-74
2021/12/28 18:12:00;;;;;;;18.40;9.18;;;;;;;2.64;93.54;91676.75;4846219;29;20043;-74
2021/12/28 18:14:26;;;;;;;30.55;15.23;;;;;;;2.73;94.50;91666.66;4878185;29;20040;-74
2021/12/28 18:16:52;;;;;;;16.58;9.57;;;;;;;2.71;93.26;91660.97;4878371;29;20037;-74
2021/12/28 18:19:18;;;;;;;21.70;11.77;;;;;;;2.66;92.94;91674.69;4878315;29;20503;-75
2021/12/28 18:21:44;;;;;;;14.50;8.43;;;;;;;2.61;93.44;91659.19;4891973;29;20036;-74
2021/12/28 18:24:11;;;;;;;19.58;11.25;;;;;;;2.59;94.80;91648.31;4879930;29;20107;-75
2021/12/28 18:26:36;;;;;;;20.42;10.23;;;;;;;2.56;94.17;91628.16;4896754;29;20399;-75
2021/12/28 18:29:21;;;;;;;19.90;10.73;;;;;;;2.53;94.00;91639.00;4896893;29;20096;-75
2021/12/28 18:31:46;;;;;;;21.77;10.68;;;;;;;2.47;93.50;91635.63;4880860;29;20499;-74
2021/12/28 18:34:12;;;;;;;19.55;9.55;;;;;;;2.44;92.88;91627.63;4879903;29;20036;-74
2021/12/28 18:36:37;;;;;;;22.58;11.55;;;;;;;2.37;93.04;91629.69;4896491;29;20052;-74
2021/12/28 18:39:03;;;;;;;20.95;10.27;;;;;;;2.31;93.24;91628.13;4879530;29;20036;-74
2021/12/28 18:41:30;;;;;;;13.90;7.93;;;;;;;2.24;92.88;91626.56;4896474;29;20041;-74
2021/12/28 18:44:00;;;;;;;12.00;6.85;;;;;;;2.21;93.05;91624.50;4896754;29;20039;-74